Carnival Pride — H3VU — position and weather

sailwx.info

Track history (hours):
 
Tides and Currents Weather Stations Pressure Air Temp Water Temp Dewpoint Dewpoint Depression Visibility Wind Speed Wind Dir Waves Ship Positions

Carnival Pride

Operator: Carnival Cruise Lines

Last reported at 2015-Jul-28 06:00 UTC. Time now 2015-Jul-29 00:31 UTC.
Position N 30°18' W 073°36'.

Type: Ship. MMSI: 354215000.

Wind from 230 at 19 knots

Waves 6.0 meters (20 feet), 6 second period

Barometer 1019.0 mb
Air temperature 26.0 ° C
Visibility: greater than 10.8 NM
Dewpoint 23.0 ° C
Water temperature 26.0 ° C

Date/timePositionNaut miles runAvg speedWind from/ knotsBaromVisibWave heightAir tempDewpointWater temp
2015-Jul-28 06:00N 30°18' W 073°36'35817.9 230 / 191019.010.8 6.026.023.026.0
2015-Jul-27 10:00N 36°06' W 075°18'6117.4 170 / 121018.0 5.4 1.025.019.030.0
2015-Jul-27 06:30N 36°57' W 075°59'3415.9
2015-Jul-27 04:21N 37°31' W 076°03'1417.6
2015-Jul-27 03:33N 37°43' W 076°11'1717.5
2015-Jul-27 02:33N 38°01' W 076°13'1818.0
2015-Jul-27 01:33N 38°18' W 076°18'1817.8
2015-Jul-27 00:33N 38°35' W 076°26'1918.4
2015-Jul-26 23:32N 38°54' W 076°24'1515.3
2015-Jul-26 22:34N 39°09' W 076°24'1010.3
2015-Jul-26 21:33N 39°15' W 076°35'1 1.2
2015-Jul-26 20:31N 39°16' W 076°36'0 0.0
2015-Jul-26 19:31N 39°16' W 076°36'0 0.0
2015-Jul-26 18:31N 39°16' W 076°36'0 0.0
2015-Jul-26 17:31N 39°16' W 076°36'0 0.0
2015-Jul-26 16:31N 39°16' W 076°36'0 0.0
2015-Jul-26 15:31N 39°16' W 076°36'0 0.0
2015-Jul-26 14:33N 39°16' W 076°36'0 0.0
2015-Jul-26 13:33N 39°16' W 076°36'0 0.0
2015-Jul-26 12:33N 39°16' W 076°36'6 6.3
2015-Jul-26 11:33N 39°12' W 076°30'1212.4
2015-Jul-26 10:33N 39°01' W 076°23'1615.9
2015-Jul-26 09:33N 38°45' W 076°26'1818.1
2015-Jul-26 08:33N 38°27' W 076°22'2019.5
2015-Jul-26 07:33N 38°09' W 076°14'38517.9
2015-Jul-25 10:00N 32°00' W 078°30'27421.9 040 / 251014.0 5.4 1.526.022.030.0
2015-Jul-24 21:31N 27°31' W 079°29'2723.4
2015-Jul-24 20:21N 27°06' W 079°18'1822.1
2015-Jul-24 19:33N 26°49' W 079°11'29 3.2
2015-Jul-24 10:33N 26°31' W 078°47'74 2.4
2015-Jul-23 03:08N 27°26' W 079°42'402 8.2
2015-Jul-21 02:18N 33°44' W 077°05'810.9
2015-Jul-21 01:33N 33°49' W 076°58'1111.2
2015-Jul-21 00:33N 33°57' W 076°47'1111.3
2015-Jul-20 23:33N 34°04' W 076°37'1111.3
2015-Jul-20 22:33N 34°12' W 076°27'1111.3
2015-Jul-20 21:33N 34°19' W 076°16'1211.7
2015-Jul-20 20:33N 34°27' W 076°06'1211.6
2015-Jul-20 19:33N 34°34' W 075°55'12010.6
2015-Jul-20 08:13N 36°33' W 075°35'913.7
2015-Jul-20 07:33N 36°41' W 075°41'2713.3
2015-Jul-20 05:30N 37°02' W 076°04'2316.4
2015-Jul-20 04:06N 37°25' W 076°05'1017.5
2015-Jul-20 03:33N 37°34' W 076°03'1717.6
2015-Jul-20 02:33N 37°51' W 076°10'2019.3
2015-Jul-20 01:32N 38°10' W 076°14'1919.1
2015-Jul-20 00:32N 38°28' W 076°23'1818.0
2015-Jul-19 23:31N 38°46' W 076°26'1616.5
2015-Jul-19 22:33N 39°02' W 076°23'1212.0
2015-Jul-19 21:33N 39°12' W 076°31'6 5.6
2015-Jul-19 20:33N 39°16' W 076°36'0 0.0
2015-Jul-19 19:33N 39°16' W 076°36'0 0.0
2015-Jul-19 18:33N 39°16' W 076°36'0 0.0
2015-Jul-19 17:33N 39°16' W 076°36'0 0.0
2015-Jul-19 16:33N 39°16' W 076°36'0 0.0
2015-Jul-19 15:33N 39°16' W 076°36'0 0.0
2015-Jul-19 14:33N 39°16' W 076°36'0 0.0
2015-Jul-19 13:33N 39°16' W 076°36'0 0.0
2015-Jul-19 12:33N 39°16' W 076°36'3 2.9
2015-Jul-19 11:33N 39°14' W 076°33'1111.3
2015-Jul-19 10:33N 39°05' W 076°24'1616.1
2015-Jul-19 09:33N 38°49' W 076°24'1818.1
2015-Jul-19 08:32N 38°31' W 076°24'1919.8
2015-Jul-19 07:33N 38°13' W 076°15'1919.3
2015-Jul-19 06:33N 37°54' W 076°09'2318.1
2015-Jul-19 05:17N 37°32' W 076°02'1418.9
2015-Jul-19 04:32N 37°18' W 076°07'10616.9
2015-Jul-18 22:16N 35°42' W 075°11'1519.5
2015-Jul-18 21:31N 35°27' W 075°10'2419.7
2015-Jul-18 20:18N 35°04' W 075°18'1824.2
2015-Jul-18 19:33N 34°50' W 075°32'2322.7
2015-Jul-18 18:33N 34°33' W 075°50'2121.3
2015-Jul-18 17:33N 34°17' W 076°07'2121.1
2015-Jul-18 16:33N 34°01' W 076°24'2121.0
2015-Jul-18 15:33N 33°45' W 076°41'12722.9
2015-Jul-18 10:00N 32°12' W 078°24'   220 / 51018.0 2.2 0.527.024.030.0
Track history (hours):
 
Tides and Currents Weather Stations Pressure Air Temp Water Temp Dewpoint Dewpoint Depression Visibility Wind Speed Wind Dir Waves Ship Positions

Carnival Pride

Operator: Carnival Cruise Lines

Last reported at 2015-Jul-28 06:00 UTC. Time now 2015-Jul-29 00:31 UTC.
Position N 30°18' W 073°36'.

Type: Ship. MMSI: 354215000.

Wind from 230 at 19 knots

Waves 6.0 meters (20 feet), 6 second period

Barometer 1019.0 mb
Air temperature 26.0 ° C
Visibility: greater than 10.8 NM
Dewpoint 23.0 ° C
Water temperature 26.0 ° C

Date/timePositionNaut miles runAvg speedWind from/ knotsBaromVisibWave heightAir tempDewpointWater temp
2015-Jul-28 06:00N 30°18' W 073°36'35817.9 230 / 191019.010.8 6.026.023.026.0
2015-Jul-27 10:00N 36°06' W 075°18'6117.4 170 / 121018.0 5.4 1.025.019.030.0
2015-Jul-27 06:30N 36°57' W 075°59'3415.9
2015-Jul-27 04:21N 37°31' W 076°03'1417.6
2015-Jul-27 03:33N 37°43' W 076°11'1717.5
2015-Jul-27 02:33N 38°01' W 076°13'1818.0
2015-Jul-27 01:33N 38°18' W 076°18'1817.8
2015-Jul-27 00:33N 38°35' W 076°26'1918.4
2015-Jul-26 23:32N 38°54' W 076°24'1515.3
2015-Jul-26 22:34N 39°09' W 076°24'1010.3
2015-Jul-26 21:33N 39°15' W 076°35'1 1.2
2015-Jul-26 20:31N 39°16' W 076°36'0 0.0
2015-Jul-26 19:31N 39°16' W 076°36'0 0.0
2015-Jul-26 18:31N 39°16' W 076°36'0 0.0
2015-Jul-26 17:31N 39°16' W 076°36'0 0.0
2015-Jul-26 16:31N 39°16' W 076°36'0 0.0
2015-Jul-26 15:31N 39°16' W 076°36'0 0.0
2015-Jul-26 14:33N 39°16' W 076°36'0 0.0
2015-Jul-26 13:33N 39°16' W 076°36'0 0.0
2015-Jul-26 12:33N 39°16' W 076°36'6 6.3
2015-Jul-26 11:33N 39°12' W 076°30'1212.4
2015-Jul-26 10:33N 39°01' W 076°23'1615.9
2015-Jul-26 09:33N 38°45' W 076°26'1818.1
2015-Jul-26 08:33N 38°27' W 076°22'2019.5
2015-Jul-26 07:33N 38°09' W 076°14'38517.9
2015-Jul-25 10:00N 32°00' W 078°30'27421.9 040 / 251014.0 5.4 1.526.022.030.0
2015-Jul-24 21:31N 27°31' W 079°29'2723.4
2015-Jul-24 20:21N 27°06' W 079°18'1822.1
2015-Jul-24 19:33N 26°49' W 079°11'29 3.2
2015-Jul-24 10:33N 26°31' W 078°47'74 2.4
2015-Jul-23 03:08N 27°26' W 079°42'402 8.2
2015-Jul-21 02:18N 33°44' W 077°05'810.9
2015-Jul-21 01:33N 33°49' W 076°58'1111.2
2015-Jul-21 00:33N 33°57' W 076°47'1111.3
2015-Jul-20 23:33N 34°04' W 076°37'1111.3
2015-Jul-20 22:33N 34°12' W 076°27'1111.3
2015-Jul-20 21:33N 34°19' W 076°16'1211.7
2015-Jul-20 20:33N 34°27' W 076°06'1211.6
2015-Jul-20 19:33N 34°34' W 075°55'12010.6
2015-Jul-20 08:13N 36°33' W 075°35'913.7
2015-Jul-20 07:33N 36°41' W 075°41'2713.3
2015-Jul-20 05:30N 37°02' W 076°04'2316.4
2015-Jul-20 04:06N 37°25' W 076°05'1017.5
2015-Jul-20 03:33N 37°34' W 076°03'1717.6
2015-Jul-20 02:33N 37°51' W 076°10'2019.3
2015-Jul-20 01:32N 38°10' W 076°14'1919.1
2015-Jul-20 00:32N 38°28' W 076°23'1818.0
2015-Jul-19 23:31N 38°46' W 076°26'1616.5
2015-Jul-19 22:33N 39°02' W 076°23'1212.0
2015-Jul-19 21:33N 39°12' W 076°31'6 5.6
2015-Jul-19 20:33N 39°16' W 076°36'0 0.0
2015-Jul-19 19:33N 39°16' W 076°36'0 0.0
2015-Jul-19 18:33N 39°16' W 076°36'0 0.0
2015-Jul-19 17:33N 39°16' W 076°36'0 0.0
2015-Jul-19 16:33N 39°16' W 076°36'0 0.0
2015-Jul-19 15:33N 39°16' W 076°36'0 0.0
2015-Jul-19 14:33N 39°16' W 076°36'0 0.0
2015-Jul-19 13:33N 39°16' W 076°36'0 0.0
2015-Jul-19 12:33N 39°16' W 076°36'3 2.9
2015-Jul-19 11:33N 39°14' W 076°33'1111.3
2015-Jul-19 10:33N 39°05' W 076°24'1616.1
2015-Jul-19 09:33N 38°49' W 076°24'1818.1
2015-Jul-19 08:32N 38°31' W 076°24'1919.8
2015-Jul-19 07:33N 38°13' W 076°15'1919.3
2015-Jul-19 06:33N 37°54' W 076°09'2318.1
2015-Jul-19 05:17N 37°32' W 076°02'1418.9
2015-Jul-19 04:32N 37°18' W 076°07'10616.9
2015-Jul-18 22:16N 35°42' W 075°11'1519.5
2015-Jul-18 21:31N 35°27' W 075°10'2419.7
2015-Jul-18 20:18N 35°04' W 075°18'1824.2
2015-Jul-18 19:33N 34°50' W 075°32'2322.7
2015-Jul-18 18:33N 34°33' W 075°50'2121.3
2015-Jul-18 17:33N 34°17' W 076°07'2121.1
2015-Jul-18 16:33N 34°01' W 076°24'2121.0
2015-Jul-18 15:33N 33°45' W 076°41'12722.9
2015-Jul-18 10:00N 32°12' W 078°24'   220 / 51018.0 2.2 0.527.024.030.0

Dump ship's entire track history